Time;durP1;ratioP1;P1;durP2;ratioP2;P2;SDS_P1;SDS_P2;PMS_P1;PMS_P2;Temp;Humidity;BMP_temperature;BMP_pressure;BME280_temperature;BME280_humidity;BME280_pressure;Samples;Min_cycle;Max_cycle;Signal;HPM_P1;HPM_P2
2023/04/05 00:02:09;;;;;;;0.00;0.00;;;;;;;5.60;78.42;101124.69;5863316;24;20072;-74
2023/04/05 00:04:37;;;;;;;0.00;0.00;;;;;;;5.65;78.91;101129.47;5825493;24;20348;-81
2023/04/05 00:07:07;;;;;;;0.00;0.00;;;;;;;5.70;78.49;101135.91;5957877;23;20030;-77
2023/04/05 00:09:32;;;;;;;0.00;0.00;;;;;;;5.75;78.50;101144.25;6156815;23;20009;-76
2023/04/05 00:11:58;;;;;;;0.00;0.00;;;;;;;5.74;78.13;101134.44;6149987;23;20019;-77
2023/04/05 00:14:23;;;;;;;0.00;0.00;;;;;;;5.77;78.45;101136.72;6184425;23;20000;-76
2023/04/05 00:16:49;;;;;;;0.00;0.00;;;;;;;5.76;78.16;101129.59;6152911;23;20019;-73
2023/04/05 00:19:14;;;;;;;0.00;0.00;;;;;;;5.79;77.62;101132.94;6209931;23;20008;-74
2023/04/05 00:21:40;;;;;;;0.00;0.00;;;;;;;5.74;77.44;101134.44;6204533;23;20008;-76
2023/04/05 00:24:08;;;;;;;0.00;0.00;;;;;;;5.69;77.71;101126.09;6155214;23;20012;-74
2023/04/05 00:26:35;;;;;;;0.00;0.00;;;;;;;5.64;77.21;101130.53;6208931;23;20070;-75
2023/04/05 00:29:00;;;;;;;0.00;0.00;;;;;;;5.64;77.50;101128.63;6177188;23;20420;-75
2023/04/05 00:31:26;;;;;;;0.00;0.00;;;;;;;5.68;76.85;101132.59;6184017;23;20004;-74
2023/04/05 00:33:51;;;;;;;0.00;0.00;;;;;;;5.71;77.59;101125.88;6182689;23;20062;-76
2023/04/05 00:36:18;;;;;;;0.00;0.00;;;;;;;5.70;76.60;101125.06;6177433;23;20009;-74
2023/04/05 00:38:45;;;;;;;0.00;0.00;;;;;;;5.73;77.13;101121.91;6133074;23;20012;-76
2023/04/05 00:41:12;;;;;;;0.00;0.00;;;;;;;5.68;77.04;101116.31;6205168;23;20040;-75
2023/04/05 00:43:37;;;;;;;0.00;0.00;;;;;;;5.70;77.09;101108.78;6182070;23;20497;-76
2023/04/05 00:46:05;;;;;;;0.00;0.00;;;;;;;5.67;76.46;101111.91;6203328;23;19996;-75
2023/04/05 00:48:31;;;;;;;0.00;0.00;;;;;;;5.49;76.73;101101.78;6182597;23;20011;-75
2023/04/05 00:50:58;;;;;;;0.00;0.00;;;;;;;5.53;76.22;101118.44;6156637;23;20016;-76
2023/04/05 00:53:23;;;;;;;0.00;0.00;;;;;;;5.49;76.80;101099.06;6202590;23;20012;-75
2023/04/05 00:55:50;;;;;;;0.00;0.00;;;;;;;5.47;77.09;101082.16;6183221;23;20027;-74
2023/04/05 00:58:20;;;;;;;0.00;0.00;;;;;;;5.53;76.73;101096.75;6178417;23;20020;-75
2023/04/05 01:01:04;;;;;;;0.00;0.00;;;;;;;5.47;76.54;101098.44;6181318;23;20015;-76
2023/04/05 01:03:31;;;;;;;0.00;0.00;;;;;;;5.41;76.53;101094.69;6194944;22;20024;-76
2023/04/05 01:06:19;;;;;;;0.00;0.00;;;;;;;5.40;76.65;101103.91;6213379;23;20012;-75
2023/04/05 01:08:59;;;;;;;0.00;0.00;;;;;;;5.35;77.37;101094.75;6235720;23;20445;-75
2023/04/05 01:11:25;;;;;;;0.00;0.00;;;;;;;5.34;77.05;101093.91;6236524;23;20067;-75
2023/04/05 01:13:57;;;;;;;0.00;0.00;;;;;;;5.33;76.75;101081.41;6237647;23;20008;-75
2023/04/05 01:16:22;;;;;;;0.00;0.00;;;;;;;5.38;77.04;101087.00;6212453;23;20012;-75
2023/04/05 01:18:47;;;;;;;0.00;0.00;;;;;;;5.23;76.73;101070.19;6158065;23;20527;-76
2023/04/05 01:21:37;;;;;;;0.00;0.00;;;;;;;5.31;76.63;101088.91;6214147;23;20050;-75
2023/04/05 01:24:22;;;;;;;0.00;0.00;;;;;;;5.24;76.67;101082.66;6211647;23;20003;-75
2023/04/05 01:26:50;;;;;;;0.00;0.00;;;;;;;5.19;76.86;101079.78;6212563;23;20008;-75
2023/04/05 01:29:52;;;;;;;0.00;0.00;;;;;;;5.11;76.91;101080.88;6207573;23;20091;-73
2023/04/05 01:32:21;;;;;;;0.00;0.00;;;;;;;5.00;77.26;101071.50;6236595;23;20000;-74
2023/04/05 01:35:03;;;;;;;0.10;0.10;;;;;;;4.94;77.48;101072.34;6238771;23;20000;-75
2023/04/05 01:37:31;;;;;;;0.00;0.00;;;;;;;4.87;77.41;101061.53;6207147;23;20012;-76
2023/04/05 01:39:58;;;;;;;0.00;0.00;;;;;;;4.85;77.50;101062.81;6238311;23;20011;-77
2023/04/05 01:42:25;;;;;;;0.00;0.00;;;;;;;4.81;77.23;101067.78;6163585;23;20004;-76
2023/04/05 01:44:52;;;;;;;0.00;0.00;;;;;;;4.62;77.78;101042.41;6182145;23;20427;-76
2023/04/05 01:47:17;;;;;;;0.10;0.10;;;;;;;4.60;78.04;101049.06;6237400;23;20427;-77
2023/04/05 01:49:43;;;;;;;0.00;0.00;;;;;;;4.64;78.60;101056.56;6183537;23;20091;-74
2023/04/05 01:52:08;;;;;;;0.00;0.00;;;;;;;4.63;78.59;101054.06;6162927;23;20320;-75
2023/04/05 01:54:34;;;;;;;0.00;0.00;;;;;;;4.74;78.22;101060.75;6158027;23;20086;-74
2023/04/05 01:56:59;;;;;;;0.00;0.00;;;;;;;4.77;78.47;101054.88;6211729;23;20058;-75
2023/04/05 01:59:25;;;;;;;0.00;0.00;;;;;;;4.85;78.62;101051.97;6214486;23;20091;-74
2023/04/05 02:01:50;;;;;;;0.00;0.00;;;;;;;4.85;78.41;101051.97;6210559;23;20012;-74
2023/04/05 02:04:16;;;;;;;0.00;0.00;;;;;;;4.92;78.37;101052.78;6213767;23;20019;-74
2023/04/05 02:07:09;;;;;;;0.00;0.00;;;;;;;4.86;78.23;101037.34;6257041;23;19992;-73
2023/04/05 02:09:35;;;;;;;0.00;0.00;;;;;;;4.86;79.25;101042.75;6215955;23;20031;-75
2023/04/05 02:12:00;;;;;;;0.00;0.00;;;;;;;4.87;79.37;101044.44;6235825;23;20426;-75
2023/04/05 02:14:26;;;;;;;0.00;0.00;;;;;;;4.83;79.04;101038.63;6215566;23;20350;-75
2023/04/05 02:16:55;;;;;;;0.00;0.00;;;;;;;4.80;79.74;101043.63;6159114;23;20427;-75
2023/04/05 02:19:22;;;;;;;0.00;0.00;;;;;;;4.82;79.99;101036.09;6238279;23;20039;-75
2023/04/05 02:21:54;;;;;;;0.00;0.00;;;;;;;4.83;79.70;101032.34;6161175;23;20014;-74
2023/04/05 02:24:20;;;;;;;0.00;0.00;;;;;;;4.78;80.23;101030.28;6188143;23;20015;-74
2023/04/05 02:26:46;;;;;;;0.10;0.10;;;;;;;4.79;80.03;101025.69;6188994;23;20008;-76
2023/04/05 02:29:12;;;;;;;0.00;0.00;;;;;;;4.81;80.05;101029.03;6209131;23;20043;-75
2023/04/05 02:31:37;;;;;;;0.00;0.00;;;;;;;4.85;80.45;101031.09;6212831;23;20012;-74
2023/04/05 02:34:04;;;;;;;0.00;0.00;;;;;;;4.85;80.10;101033.00;6161101;23;20087;-75
2023/04/05 02:36:30;;;;;;;0.00;0.00;;;;;;;4.87;80.16;101033.59;6190977;23;20024;-75
2023/04/05 02:38:55;;;;;;;0.00;0.00;;;;;;;4.88;80.06;101027.97;6212698;23;20046;-74
2023/04/05 02:41:22;;;;;;;0.00;0.00;;;;;;;4.90;80.29;101033.16;6182936;23;20417;-73
2023/04/05 02:43:49;;;;;;;0.00;0.00;;;;;;;4.89;80.08;101018.78;6164818;23;20073;-76
2023/04/05 02:46:14;;;;;;;0.00;0.00;;;;;;;4.89;79.99;101026.94;6210313;23;20886;-76
2023/04/05 02:48:40;;;;;;;0.00;0.00;;;;;;;4.80;79.78;101005.69;6210469;23;20008;-75
2023/04/05 02:51:05;;;;;;;0.00;0.00;;;;;;;4.84;79.89;101017.78;6212930;23;20012;-74
2023/04/05 02:53:30;;;;;;;0.00;0.00;;;;;;;4.86;79.85;101015.66;6162985;23;20011;-74
2023/04/05 02:55:56;;;;;;;0.00;0.00;;;;;;;4.80;79.53;101001.09;6186085;23;20392;-75
2023/04/05 02:58:23;;;;;;;0.00;0.00;;;;;;;4.86;79.87;101004.81;6212446;23;20016;-74
2023/04/05 03:00:50;;;;;;;0.00;0.00;;;;;;;4.87;79.53;101007.31;6235980;23;20030;-76
2023/04/05 03:03:20;;;;;;;0.00;0.00;;;;;;;4.88;80.24;101005.47;6188333;23;20162;-75
2023/04/05 03:05:47;;;;;;;0.00;0.00;;;;;;;4.88;79.61;101009.00;6209364;23;20099;-76
2023/04/05 03:08:17;;;;;;;0.00;0.00;;;;;;;4.81;80.14;100989.22;6213261;23;20008;-75
2023/04/05 03:10:45;;;;;;;0.00;0.00;;;;;;;4.86;80.24;100996.69;6235829;23;20442;-75
2023/04/05 03:13:10;;;;;;;0.00;0.00;;;;;;;4.88;79.82;101002.75;6238441;23;20077;-75
2023/04/05 03:15:36;;;;;;;0.00;0.00;;;;;;;4.90;79.70;100989.81;6236856;23;20027;-75
2023/04/05 03:18:01;;;;;;;0.00;0.00;;;;;;;4.87;79.69;100991.06;6187197;23;20015;-75
2023/04/05 03:20:27;;;;;;;0.00;0.00;;;;;;;4.90;79.97;100995.22;6241438;23;20445;-75
2023/04/05 03:22:52;;;;;;;0.00;0.00;;;;;;;4.90;79.72;100990.63;6160437;23;20083;-75
2023/04/05 03:25:18;;;;;;;0.00;0.00;;;;;;;4.86;80.20;100988.56;6163738;23;20018;-75
2023/04/05 03:27:44;;;;;;;0.00;0.00;;;;;;;4.85;80.59;100997.75;6184838;23;20382;-74
2023/04/05 03:30:10;;;;;;;0.00;0.00;;;;;;;4.76;80.77;100985.47;6212634;23;20008;-75
2023/04/05 03:32:36;;;;;;;0.00;0.00;;;;;;;4.81;80.34;100988.38;6163945;23;20015;-75
2023/04/05 03:35:01;;;;;;;0.00;0.00;;;;;;;4.83;81.05;100994.41;6182375;23;20000;-76
2023/04/05 03:37:27;;;;;;;0.00;0.00;;;;;;;4.75;81.07;100981.13;6188985;23;20613;-75
2023/04/05 03:39:52;;;;;;;0.00;0.00;;;;;;;4.75;81.53;100983.84;6235757;23;20007;-75
2023/04/05 03:42:18;;;;;;;0.00;0.00;;;;;;;4.66;81.48;100988.66;6164029;23;20086;-75
2023/04/05 03:44:43;;;;;;;0.00;0.00;;;;;;;4.66;81.52;100989.47;6210584;23;20008;-75
2023/04/05 03:47:09;;;;;;;0.00;0.00;;;;;;;4.57;81.65;100985.34;6213362;23;20012;-75
2023/04/05 03:49:35;;;;;;;0.00;0.00;;;;;;;4.54;81.79;100985.75;6214413;23;20398;-75
2023/04/05 03:52:00;;;;;;;0.05;0.05;;;;;;;4.53;82.46;100984.91;6209095;23;20051;-74
2023/04/05 03:54:26;;;;;;;0.00;0.00;;;;;;;4.52;82.41;100977.81;6238501;23;20004;-74
2023/04/05 03:56:51;;;;;;;0.00;0.00;;;;;;;4.51;82.54;100976.19;6234809;23;20011;-75
2023/04/05 03:59:17;;;;;;;0.00;0.00;;;;;;;4.50;82.34;100963.69;6186886;23;20011;-75
2023/04/05 04:01:43;;;;;;;0.00;0.00;;;;;;;4.51;82.90;100967.22;6186765;23;20004;-76
2023/04/05 04:04:09;;;;;;;0.00;0.00;;;;;;;4.57;82.28;100974.50;6187504;23;20351;-74
2023/04/05 04:06:36;;;;;;;0.00;0.00;;;;;;;4.54;82.60;100972.19;6212880;23;20019;-74
2023/04/05 04:09:04;;;;;;;0.00;0.00;;;;;;;4.55;82.43;100971.16;6185323;23;20004;-75
2023/04/05 04:11:30;;;;;;;0.00;0.00;;;;;;;4.61;82.94;100970.31;6213340;23;20434;-75
2023/04/05 04:13:55;;;;;;;0.10;0.10;;;;;;;4.64;82.75;100972.59;6234185;23;20015;-74
2023/04/05 04:16:20;;;;;;;0.00;0.00;;;;;;;4.67;82.02;100969.47;6211708;23;20015;-73
2023/04/05 04:18:46;;;;;;;0.00;0.00;;;;;;;4.70;82.46;100969.03;6160992;23;20004;-74
2023/04/05 04:21:13;;;;;;;0.00;0.00;;;;;;;4.68;81.90;100954.03;6213196;23;20082;-75
2023/04/05 04:23:39;;;;;;;0.00;0.00;;;;;;;4.81;82.13;100964.00;6212376;23;20423;-72
2023/04/05 04:26:04;;;;;;;0.00;0.00;;;;;;;4.83;81.91;100957.31;6184093;23;20014;-72
2023/04/05 04:28:33;;;;;;;0.00;0.00;;;;;;;4.89;81.22;100956.47;6212479;23;20026;-74
2023/04/05 04:31:03;;;;;;;0.00;0.00;;;;;;;4.94;81.46;100950.38;6161180;23;20122;-74
2023/04/05 04:33:29;;;;;;;0.00;0.00;;;;;;;4.89;81.08;100939.34;6213932;23;20011;-74
2023/04/05 04:35:54;;;;;;;0.00;0.00;;;;;;;4.90;81.02;100943.72;6183256;23;20000;-75
2023/04/05 04:38:20;;;;;;;0.00;0.00;;;;;;;4.92;81.65;100948.94;6187700;23;20004;-75
2023/04/05 04:40:45;;;;;;;0.00;0.00;;;;;;;4.92;81.22;100948.94;6164227;23;20138;-74
2023/04/05 04:43:13;;;;;;;0.00;0.00;;;;;;;4.91;80.98;100948.13;6184273;23;20004;-74
2023/04/05 04:45:39;;;;;;;0.00;0.00;;;;;;;4.97;81.31;100952.66;6214160;23;20004;-74
2023/04/05 04:48:05;;;;;;;0.00;0.00;;;;;;;4.95;81.77;100946.63;6186309;23;20022;-74
2023/04/05 04:50:31;;;;;;;0.00;0.00;;;;;;;4.94;81.37;100946.84;6215276;23;20079;-75
2023/04/05 04:53:00;;;;;;;0.00;0.00;;;;;;;4.88;81.17;100943.13;6187089;23;20004;-75
2023/04/05 04:55:29;;;;;;;0.00;0.00;;;;;;;4.84;81.28;100941.88;6214129;23;20074;-75
2023/04/05 04:57:55;;;;;;;0.00;0.00;;;;;;;4.80;81.14;100943.34;6213594;23;20014;-74
2023/04/05 05:00:22;;;;;;;0.00;0.00;;;;;;;4.79;81.89;100944.41;6235904;23;20114;-75
2023/04/05 05:02:49;;;;;;;0.00;0.00;;;;;;;4.78;81.91;100943.56;6213379;22;20023;-75
2023/04/05 05:05:15;;;;;;;0.00;0.00;;;;;;;4.75;81.80;100929.66;6235194;23;20016;-74
2023/04/05 05:07:41;;;;;;;0.00;0.00;;;;;;;4.68;81.84;100933.19;6186730;23;20335;-75
2023/04/05 05:10:08;;;;;;;0.00;0.00;;;;;;;4.72;81.91;100939.03;6187621;23;20008;-75
2023/04/05 05:12:34;;;;;;;0.00;0.00;;;;;;;4.68;81.32;100937.78;6235188;23;20287;-75
2023/04/05 05:14:59;;;;;;;0.00;0.00;;;;;;;4.74;82.19;100938.81;6161179;23;20066;-74
2023/04/05 05:17:24;;;;;;;0.00;0.00;;;;;;;4.66;81.02;100929.88;6185844;23;20316;-76
2023/04/05 05:19:50;;;;;;;0.08;0.08;;;;;;;4.63;81.52;100924.88;6189307;23;20008;-73
2023/04/05 05:22:16;;;;;;;0.00;0.00;;;;;;;4.64;81.85;100937.38;6207929;23;20027;-74
2023/04/05 05:24:43;;;;;;;0.00;0.00;;;;;;;4.61;80.89;100931.56;6189248;23;20070;-74
2023/04/05 05:27:08;;;;;;;0.00;0.00;;;;;;;4.67;81.16;100926.13;6188924;23;20008;-73
2023/04/05 05:29:34;;;;;;;0.00;0.00;;;;;;;4.75;81.41;100937.78;6235228;23;19996;-74
2023/04/05 05:31:59;;;;;;;0.00;0.00;;;;;;;4.79;81.15;100933.56;6189861;23;20057;-74
2023/04/05 05:34:25;;;;;;;0.00;0.00;;;;;;;4.72;81.50;100923.59;6208479;23;20178;-74
2023/04/05 05:36:52;;;;;;;0.00;0.00;;;;;;;4.80;81.24;100935.22;6166569;23;20028;-75
2023/04/05 05:39:18;;;;;;;0.00;0.00;;;;;;;4.81;81.14;100932.31;6161626;23;20016;-74
2023/04/05 05:41:44;;;;;;;0.00;0.00;;;;;;;4.86;81.39;100929.78;6190086;23;20019;-73
2023/04/05 05:44:09;;;;;;;0.00;0.00;;;;;;;4.92;81.42;100929.97;6189875;23;20339;-74
2023/04/05 05:46:35;;;;;;;0.00;0.00;;;;;;;5.00;81.20;100929.72;6186189;23;20004;-74
2023/04/05 05:49:00;;;;;;;0.00;0.00;;;;;;;5.02;80.51;100925.75;6213819;23;20372;-74
2023/04/05 05:51:25;;;;;;;0.00;0.00;;;;;;;5.03;80.89;100930.09;6160868;23;20130;-74
2023/04/05 05:53:51;;;;;;;0.00;0.00;;;;;;;5.13;80.22;100926.94;6216537;23;20496;-74
2023/04/05 05:56:16;;;;;;;0.00;0.00;;;;;;;5.20;80.52;100933.16;6185742;23;20330;-76
2023/04/05 05:58:42;;;;;;;0.00;0.00;;;;;;;5.24;80.16;100930.81;6188238;23;20069;-74
2023/04/05 06:01:07;;;;;;;0.00;0.00;;;;;;;5.26;79.60;100928.75;6214809;23;20022;-75
2023/04/05 06:03:33;;;;;;;0.00;0.00;;;;;;;5.33;79.71;100926.81;6235835;22;20138;-75
2023/04/05 06:06:01;;;;;;;0.00;0.00;;;;;;;5.39;80.40;100934.06;6241135;23;20008;-75
2023/04/05 06:08:27;;;;;;;0.00;0.00;;;;;;;5.40;79.70;100924.88;6240654;23;20318;-74
2023/04/05 06:10:53;;;;;;;0.00;0.00;;;;;;;5.50;79.32;100924.38;6186003;23;20012;-74
2023/04/05 06:13:19;;;;;;;0.00;0.00;;;;;;;5.58;78.66;100924.13;6213816;23;20027;-76
2023/04/05 06:15:46;;;;;;;0.00;0.00;;;;;;;5.69;79.07;100925.28;6237644;23;20386;-76
2023/04/05 06:18:12;;;;;;;0.00;0.00;;;;;;;5.80;79.10;100925.59;6189941;23;20012;-76
2023/04/05 06:20:39;;;;;;;0.00;0.00;;;;;;;5.80;77.83;100925.59;6184322;23;20039;-75
2023/04/05 06:23:09;;;;;;;0.00;0.00;;;;;;;5.81;78.20;100919.13;6213404;23;20019;-75
2023/04/05 06:25:35;;;;;;;0.00;0.00;;;;;;;5.84;77.88;100916.81;6236277;23;20008;-75
2023/04/05 06:28:02;;;;;;;0.00;0.00;;;;;;;5.92;78.41;100910.28;6187409;23;20034;-75
2023/04/05 06:30:27;;;;;;;0.00;0.00;;;;;;;6.06;77.69;100917.28;6215679;23;20032;-75
2023/04/05 06:32:53;;;;;;;0.00;0.00;;;;;;;6.09;77.13;100910.56;6208975;23;20059;-75
2023/04/05 06:35:23;;;;;;;0.00;0.00;;;;;;;6.22;77.14;100915.00;6213426;23;20000;-76
2023/04/05 06:37:48;;;;;;;0.00;0.00;;;;;;;6.35;76.81;100923.03;6158689;23;20016;-76
2023/04/05 06:40:14;;;;;;;0.00;0.00;;;;;;;6.44;77.16;100927.13;6239073;23;20070;-75
2023/04/05 06:42:40;;;;;;;0.00;0.00;;;;;;;6.61;76.38;100924.63;6209477;23;19993;-75
2023/04/05 06:45:06;;;;;;;0.00;0.00;;;;;;;6.87;76.20;100925.34;6213138;23;20008;-76
2023/04/05 06:47:39;;;;;;;0.00;0.00;;;;;;;6.89;75.96;100897.91;6213110;23;20374;-76
2023/04/05 06:50:09;;;;;;;0.00;0.00;;;;;;;7.01;75.14;100892.53;6238883;23;20007;-78
2023/04/05 06:52:34;;;;;;;0.00;0.00;;;;;;;7.10;74.56;100905.56;6189491;23;20055;-79
2023/04/05 06:55:00;;;;;;;0.00;0.00;;;;;;;7.24;74.70;100911.66;6213860;23;19996;-79
2023/04/05 06:57:26;;;;;;;0.00;0.00;;;;;;;7.23;73.80;100892.81;6216465;23;20032;-78
2023/04/05 06:59:53;;;;;;;0.00;0.00;;;;;;;7.35;74.17;100912.75;6214505;23;20323;-77
2023/04/05 07:02:21;;;;;;;0.00;0.00;;;;;;;7.32;73.07;100905.06;6237443;23;20413;-77
2023/04/05 07:04:47;;;;;;;0.00;0.00;;;;;;;7.29;73.35;100902.81;6214343;23;20435;-78
2023/04/05 07:07:13;;;;;;;0.00;0.00;;;;;;;7.41;73.58;100911.81;6186751;23;20073;-80
2023/04/05 07:09:39;;;;;;;0.00;0.00;;;;;;;7.48;72.63;100911.72;6215068;23;20446;-77
2023/04/05 07:12:06;;;;;;;0.00;0.00;;;;;;;7.60;72.05;100922.63;6185292;23;20094;-78
2023/04/05 07:14:44;;;;;;;0.00;0.00;;;;;;;7.65;72.07;100918.13;6215000;23;20011;-78
2023/04/05 07:17:10;;;;;;;0.00;0.00;;;;;;;7.60;71.91;100889.97;6213566;23;20019;-78
2023/04/05 07:19:56;;;;;;;0.00;0.00;;;;;;;7.74;71.22;100915.06;6217048;23;20042;-79
2023/04/05 07:22:36;;;;;;;0.00;0.00;;;;;;;7.60;71.99;100898.94;6236874;23;20000;-78
2023/04/05 07:25:11;;;;;;;0.00;0.00;;;;;;;7.91;72.34;100907.03;6190836;23;20104;-78
2023/04/05 07:27:39;;;;;;;0.00;0.00;;;;;;;8.05;70.72;100886.66;6211132;23;19996;-78
2023/04/05 07:30:08;;;;;;;0.00;0.00;;;;;;;8.19;70.15;100901.69;6241584;23;20004;-78
2023/04/05 07:32:33;;;;;;;0.00;0.00;;;;;;;8.30;69.40;100891.84;6240348;23;20004;-79
2023/04/05 07:35:26;;;;;;;0.00;0.00;;;;;;;8.47;69.05;100891.97;6242234;23;20090;-78
2023/04/05 07:37:52;;;;;;;0.00;0.00;;;;;;;8.63;67.91;100895.84;6235206;23;20023;-77
2023/04/05 07:40:38;;;;;;;0.00;0.00;;;;;;;8.92;67.64;100917.66;6215558;23;20008;-77
2023/04/05 07:43:03;;;;;;;0.00;0.00;;;;;;;8.99;67.81;100899.25;6187786;23;20015;-79
2023/04/05 07:45:37;;;;;;;0.00;0.00;;;;;;;9.38;67.20;100906.78;6188914;23;20346;-77
2023/04/05 07:48:05;;;;;;;0.00;0.00;;;;;;;9.44;66.81;100884.78;6185637;23;20004;-76
2023/04/05 07:50:31;;;;;;;0.00;0.00;;;;;;;9.53;66.43;100887.91;6214819;23;20083;-77
2023/04/05 07:53:04;;;;;;;0.00;0.00;;;;;;;9.48;65.95;100879.66;6212373;23;20029;-77
2023/04/05 07:55:30;;;;;;;0.00;0.00;;;;;;;9.63;65.38;100897.38;6214718;23;20032;-76
2023/04/05 07:57:57;;;;;;;0.00;0.00;;;;;;;9.48;65.76;100879.66;6239991;23;20012;-77
2023/04/05 08:00:24;;;;;;;0.00;0.00;;;;;;;9.39;65.51;100870.22;6210615;23;20067;-76
2023/04/05 08:02:52;;;;;;;0.00;0.00;;;;;;;9.43;65.93;100876.84;6186700;23;20020;-76
2023/04/05 08:05:18;;;;;;;0.00;0.00;;;;;;;9.40;65.32;100874.59;6154717;23;20008;-77
2023/04/05 08:07:43;;;;;;;0.00;0.00;;;;;;;9.42;65.24;100861.53;6212204;23;20027;-77
2023/04/05 08:10:09;;;;;;;0.00;0.00;;;;;;;9.42;65.61;100869.75;6159402;23;20328;-77
2023/04/05 08:12:35;;;;;;;0.03;0.03;;;;;;;9.49;65.76;100875.00;6206799;23;20080;-78
2023/04/05 08:15:00;;;;;;;0.00;0.00;;;;;;;9.78;66.00;100883.94;6163521;23;20474;-78
2023/04/05 08:17:27;;;;;;;0.00;0.00;;;;;;;9.78;64.97;100867.56;6185056;23;20501;-80
2023/04/05 08:20:10;;;;;;;0.00;0.00;;;;;;;9.78;65.19;100873.03;6188096;23;20035;-78
2023/04/05 08:30:18;;;;;;;;;;;;;;;;;;;;;
2023/04/05 08:40:37;;;;;;;;;;;;;;;;;;;;;
2023/04/05 08:50:23;;;;;;;0.00;0.00;;;;;;;11.62;61.34;100895.47;5817618;24;20599;-78
2023/04/05 08:53:32;;;;;;;0.00;0.00;;;;;;;11.74;60.88;100883.47;5832525;24;20020;-80
2023/04/05 08:59:48;;;;;;;0.00;0.00;;;;;;;11.98;59.20;100862.84;5955534;24;20023;-79
2023/04/05 09:03:02;;;;;;;0.00;0.00;;;;;;;12.40;58.85;100883.09;5974828;23;20012;-79
2023/04/05 09:12:28;;;;;;;0.00;0.00;;;;;;;12.87;57.93;100892.31;6130538;23;20016;-80
2023/04/05 09:14:59;;;;;;;0.10;0.10;;;;;;;13.11;57.27;100887.16;6124566;23;20445;-79
2023/04/05 09:17:36;;;;;;;;;;;;;;;;;;;;;
2023/04/05 09:20:04;;;;;;;0.10;0.10;;;;;;;13.67;56.15;100867.19;6181693;23;20088;-77
2023/04/05 09:22:44;;;;;;;0.00;0.00;;;;;;;13.93;53.99;100854.22;6199277;23;20040;-77
2023/04/05 09:25:09;;;;;;;0.00;0.00;;;;;;;14.37;54.29;100863.72;6178451;23;20012;-77
2023/04/05 09:27:35;;;;;;;0.00;0.00;;;;;;;14.73;52.74;100877.34;6177231;23;20768;-78
2023/04/05 09:30:00;;;;;;;0.00;0.00;;;;;;;14.61;52.32;100871.31;6154788;23;20080;-78
2023/04/05 09:32:36;;;;;;;0.00;0.00;;;;;;;14.59;52.66;100881.81;6153625;23;20070;-81
2023/04/05 09:35:19;;;;;;;0.00;0.00;;;;;;;14.06;52.80;100852.81;6161356;23;20007;-79
2023/04/05 09:37:54;;;;;;;0.00;0.00;;;;;;;13.71;53.28;100860.03;6181934;23;20754;-78
2023/04/05 09:40:42;;;;;;;0.03;0.03;;;;;;;13.55;54.18;100844.63;6208251;23;20005;-78
2023/04/05 09:43:08;;;;;;;0.00;0.00;;;;;;;13.76;53.60;100848.22;6205713;23;20005;-79
2023/04/05 09:45:41;;;;;;;0.00;0.00;;;;;;;14.16;53.21;100878.66;6183997;23;20009;-79
2023/04/05 09:48:14;;;;;;;0.00;0.00;;;;;;;14.19;53.51;100867.91;6182656;23;20411;-79
2023/04/05 09:50:47;;;;;;;0.00;0.00;;;;;;;14.05;52.61;100851.16;6185344;23;20423;-79
2023/04/05 09:53:18;;;;;;;0.03;0.03;;;;;;;14.10;52.56;100862.13;6184592;23;20008;-78
2023/04/05 09:55:43;;;;;;;0.00;0.00;;;;;;;14.06;52.65;100847.31;6187921;23;20005;-77
2023/04/05 09:58:17;;;;;;;0.00;0.00;;;;;;;14.28;53.06;100860.72;6186020;23;20012;-74
2023/04/05 10:00:53;;;;;;;;;;;;;;;14.45;52.94;100871.38;6184980;23;20005;-77
2023/04/05 10:03:19;;;;;;;0.00;0.00;;;;;;;14.26;52.64;100856.59;6187001;22;19915;-77
2023/04/05 10:05:46;;;;;;;0.00;0.00;;;;;;;14.21;52.67;100853.88;6236672;23;20059;-77
2023/04/05 10:08:13;;;;;;;0.00;0.00;;;;;;;14.09;52.92;100879.75;6212306;23;20030;-77
2023/04/05 10:10:46;;;;;;;0.00;0.00;;;;;;;13.75;53.38;100863.84;6210149;23;20000;-77
2023/04/05 10:13:13;;;;;;;0.00;0.00;;;;;;;13.44;54.63;100866.63;6213345;23;20035;-81
2023/04/05 10:15:43;;;;;;;0.00;0.00;;;;;;;13.09;56.13;100884.69;6211388;23;20000;-77
2023/04/05 10:18:20;;;;;;;0.00;0.00;;;;;;;12.79;57.10;100879.97;6215108;23;20008;-77
2023/04/05 10:20:49;;;;;;;0.00;0.00;;;;;;;12.62;58.29;100868.38;6212383;23;20328;-77
2023/04/05 10:23:25;;;;;;;0.00;0.00;;;;;;;12.72;58.98;100882.94;6241620;23;20087;-77
2023/04/05 10:25:51;;;;;;;0.00;0.00;;;;;;;12.65;59.18;100879.63;6211941;23;20508;-78
2023/04/05 10:28:34;;;;;;;0.00;0.00;;;;;;;12.64;59.54;100877.97;6242652;23;20038;-77
2023/04/05 10:31:31;;;;;;;0.00;0.00;;;;;;;12.54;59.35;100880.66;6212613;23;20000;-78
2023/04/05 10:34:10;;;;;;;0.00;0.00;;;;;;;12.68;59.98;100876.34;6243373;23;20000;-78
2023/04/05 10:36:55;;;;;;;0.00;0.00;;;;;;;12.80;59.85;100880.78;6215981;23;20435;-78
2023/04/05 10:39:44;;;;;;;0.00;0.00;;;;;;;12.95;59.12;100872.56;6237848;22;20044;-77
2023/04/05 10:42:20;;;;;;;0.00;0.00;;;;;;;12.89;59.00;100880.00;6215210;23;20008;-77
2023/04/05 10:44:52;;;;;;;0.00;0.00;;;;;;;12.66;59.62;100870.31;6225437;23;20008;-77
2023/04/05 10:47:18;;;;;;;0.00;0.00;;;;;;;12.42;60.25;100855.41;6235089;23;20008;-77
2023/04/05 10:49:51;;;;;;;0.00;0.00;;;;;;;12.33;60.92;100872.34;6230493;23;20004;-76
2023/04/05 10:52:16;;;;;;;0.00;0.00;;;;;;;12.21;61.59;100858.06;6227031;23;20095;-76
2023/04/05 10:54:44;;;;;;;0.00;0.00;;;;;;;12.39;61.57;100868.53;6164163;23;20087;-78
2023/04/05 10:57:11;;;;;;;0.00;0.00;;;;;;;12.69;61.14;100847.81;6217592;23;20309;-78
2023/04/05 11:00:03;;;;;;;0.00;0.00;;;;;;;13.13;59.15;100867.66;6189455;23;20008;-76
2023/04/05 11:02:29;;;;;;;0.00;0.00;;;;;;;13.18;58.98;100859.44;6214527;23;20015;-77
2023/04/05 11:04:58;;;;;;;0.00;0.00;;;;;;;13.36;58.83;100882.81;6215052;23;20567;-78
2023/04/05 11:07:44;;;;;;;0.00;0.00;;;;;;;13.17;58.96;100857.78;6235890;23;20494;-77
2023/04/05 11:10:16;;;;;;;0.00;0.00;;;;;;;13.09;59.87;100857.22;6238284;23;20087;-78
2023/04/05 11:12:51;;;;;;;0.00;0.00;;;;;;;12.96;59.43;100885.19;6214719;23;20421;-80
2023/04/05 11:15:34;;;;;;;0.00;0.00;;;;;;;12.58;60.85;100873.56;6213612;23;20310;-78
2023/04/05 11:18:17;;;;;;;0.00;0.00;;;;;;;12.40;61.98;100886.66;6216621;23;20004;-77
2023/04/05 11:21:12;;;;;;;0.00;0.00;;;;;;;12.34;63.08;100879.50;6214368;23;20015;-79
2023/04/05 11:24:07;;;;;;;0.00;0.00;;;;;;;12.44;62.49;100877.88;6239921;23;20004;-77
2023/04/05 11:26:41;;;;;;;0.00;0.00;;;;;;;12.25;63.12;100872.88;6243607;23;20031;-76
2023/04/05 11:29:11;;;;;;;0.00;0.00;;;;;;;12.15;63.87;100861.84;6215769;23;20381;-76
2023/04/05 11:31:59;;;;;;;0.00;0.00;;;;;;;12.36;63.64;100865.53;6219619;23;20066;-78
2023/04/05 11:34:35;;;;;;;0.00;0.00;;;;;;;12.42;63.84;100863.63;6212990;23;20011;-78
2023/04/05 11:37:00;;;;;;;0.00;0.00;;;;;;;12.55;63.21;100852.16;6240707;23;20015;-76
2023/04/05 11:39:27;;;;;;;0.00;0.00;;;;;;;12.69;63.26;100864.28;6213262;23;20442;-77
2023/04/05 11:42:02;;;;;;;0.00;0.00;;;;;;;12.83;63.08;100859.09;6215821;23;20498;-76
2023/04/05 11:44:51;;;;;;;0.00;0.00;;;;;;;13.00;63.06;100847.88;6238875;23;20437;-77
2023/04/05 11:47:20;;;;;;;0.00;0.00;;;;;;;13.30;62.25;100835.28;6241138;23;20083;-77
2023/04/05 11:49:49;;;;;;;0.00;0.00;;;;;;;13.53;60.43;100844.09;6214018;23;20008;-78
2023/04/05 11:52:17;;;;;;;0.00;0.00;;;;;;;13.27;60.87;100831.19;6242347;23;20039;-78
2023/04/05 11:54:46;;;;;;;0.00;0.00;;;;;;;13.14;61.35;100830.88;6213469;23;20003;-76
2023/04/05 11:57:19;;;;;;;0.00;0.00;;;;;;;13.13;61.48;100823.72;6215186;23;20008;-78
2023/04/05 11:59:50;;;;;;;0.00;0.00;;;;;;;13.24;61.51;100842.72;6217412;23;20356;-77
2023/04/05 12:02:19;;;;;;;0.00;0.00;;;;;;;12.98;60.60;100827.28;6211951;23;20011;-77
2023/04/05 12:04:52;;;;;;;0.00;0.00;;;;;;;12.95;60.61;100823.16;6213451;23;20095;-76
2023/04/05 12:07:19;;;;;;;0.00;0.00;;;;;;;13.08;61.38;100817.16;6236771;23;20032;-76
2023/04/05 12:10:03;;;;;;;0.00;0.00;;;;;;;13.25;61.13;100822.38;6210946;23;20012;-78
2023/04/05 12:12:35;;;;;;;0.00;0.00;;;;;;;13.34;60.97;100811.69;6209641;23;20342;-78
2023/04/05 12:15:02;;;;;;;0.00;0.00;;;;;;;13.51;59.36;100805.09;6214228;23;20415;-77
2023/04/05 12:18:00;;;;;;;0.00;0.00;;;;;;;13.71;59.08;100791.34;6208669;23;20004;-79
2023/04/05 12:20:25;;;;;;;0.00;0.00;;;;;;;14.11;58.86;100789.53;6135642;23;20011;-78